Time;durP1;ratioP1;P1;durP2;ratioP2;P2;SDS_P1;SDS_P2;PMS_P1;PMS_P2;Temp;Humidity;BMP_temperature;BMP_pressure;BME280_temperature;BME280_humidity;BME280_pressure;Samples;Min_cycle;Max_cycle;Signal;HPM_P1;HPM_P2
2021/11/01 00:00:41;;;;;;;12.52;3.72;;;;;;;11.87;88.41;99762.78;4993812;28;20114;-52
2021/11/01 00:03:09;;;;;;;16.25;3.70;;;;;;;11.86;88.67;99767.41;4993261;28;20065;-52
2021/11/01 00:05:37;;;;;;;12.77;3.65;;;;;;;11.83;88.18;99764.47;4993819;28;20038;-51
2021/11/01 00:08:05;;;;;;;13.57;3.72;;;;;;;11.82;88.07;99758.19;4993345;28;20049;-52
2021/11/01 00:10:33;;;;;;;11.75;3.72;;;;;;;11.77;88.23;99768.41;4993362;28;20042;-53
2021/11/01 00:13:02;;;;;;;10.80;3.83;;;;;;;11.76;88.55;99766.78;4993083;28;20070;-49
2021/11/01 00:15:30;;;;;;;15.65;3.80;;;;;;;11.75;88.85;99760.53;4993711;28;20044;-49
2021/11/01 00:17:57;;;;;;;11.63;3.95;;;;;;;11.79;88.71;99777.13;4993574;28;20429;-53
2021/11/01 00:20:25;;;;;;;12.35;3.88;;;;;;;11.73;88.15;99769.00;4993623;28;20113;-49
2021/11/01 00:22:53;;;;;;;10.48;3.50;;;;;;;11.74;88.39;99767.09;4992794;28;20047;-49
2021/11/01 00:25:21;;;;;;;12.35;3.40;;;;;;;11.73;87.82;99770.91;4992677;28;20046;-48
2021/11/01 00:27:49;;;;;;;10.07;3.53;;;;;;;11.73;88.08;99765.47;4992900;28;20042;-51
2021/11/01 00:30:18;;;;;;;13.43;3.40;;;;;;;11.69;86.98;99765.28;4993347;28;20061;-51
2021/11/01 00:32:47;;;;;;;15.80;4.18;;;;;;;11.68;86.86;99773.75;4993262;28;20073;-53
2021/11/01 00:35:15;;;;;;;11.27;3.10;;;;;;;11.70;86.87;99774.25;4993027;28;20505;-52
2021/11/01 00:37:42;;;;;;;12.32;3.72;;;;;;;11.67;86.96;99770.22;4992926;28;20031;-52
2021/11/01 00:40:11;;;;;;;12.10;3.42;;;;;;;11.65;87.13;99761.53;4992616;28;20056;-49
2021/11/01 00:42:38;;;;;;;9.30;3.40;;;;;;;11.64;86.40;99756.34;4992563;28;20489;-52
2021/11/01 00:45:06;;;;;;;8.02;2.92;;;;;;;11.64;86.52;99761.81;4992794;28;20058;-50
2021/11/01 00:47:34;;;;;;;9.90;3.25;;;;;;;11.63;86.63;99750.09;4993200;28;20060;-52
2021/11/01 00:50:04;;;;;;;10.43;3.20;;;;;;;11.63;86.12;99752.03;4993465;28;20092;-52
2021/11/01 00:52:32;;;;;;;10.35;3.67;;;;;;;11.62;86.57;99758.59;4992198;28;20104;-53
2021/11/01 00:55:05;;;;;;;11.18;3.13;;;;;;;11.60;86.56;99756.16;4992470;28;20030;-51
2021/11/01 00:57:33;;;;;;;10.88;3.33;;;;;;;11.56;86.55;99749.69;4992903;28;20129;-50
2021/11/01 01:00:01;;;;;;;12.63;3.72;;;;;;;11.54;85.98;99751.91;4993113;28;20046;-51
2021/11/01 01:02:33;;;;;;;13.23;3.72;;;;;;;11.53;85.70;99744.84;4992381;28;20046;-51
2021/11/01 01:05:04;;;;;;;14.63;4.10;;;;;;;11.51;86.11;99747.84;4992563;28;20486;-51
2021/11/01 01:07:32;;;;;;;13.45;3.55;;;;;;;11.51;85.92;99739.66;4992982;28;20050;-53
2021/11/01 01:10:00;;;;;;;12.10;3.15;;;;;;;11.52;86.50;99737.78;4992529;28;20409;-52
2021/11/01 01:12:28;;;;;;;16.38;4.55;;;;;;;11.50;86.01;99735.34;4992789;28;20049;-52
2021/11/01 01:15:01;;;;;;;16.48;3.53;;;;;;;11.49;85.68;99738.34;4992851;28;20034;-53
2021/11/01 01:17:31;;;;;;;9.52;3.08;;;;;;;11.48;85.58;99736.75;4993046;28;20051;-53
2021/11/01 01:20:09;;;;;;;9.30;2.58;;;;;;;11.46;85.65;99728.06;4992471;28;20450;-51
2021/11/01 01:22:38;;;;;;;13.15;3.17;;;;;;;11.45;85.11;99740.88;4991019;28;20050;-52
2021/11/01 01:25:13;;;;;;;9.48;2.85;;;;;;;11.45;85.74;99740.88;4992925;28;20101;-52
2021/11/01 01:27:42;;;;;;;10.65;3.17;;;;;;;11.42;84.98;99735.22;4980621;28;20556;-52
2021/11/01 01:30:11;;;;;;;11.10;3.17;;;;;;;11.40;85.55;99730.06;4992406;28;20386;-49
2021/11/01 01:32:39;;;;;;;14.75;3.50;;;;;;;11.40;85.25;99735.53;4992366;28;20048;-53
2021/11/01 01:35:07;;;;;;;9.82;3.00;;;;;;;11.38;85.02;99726.84;4992284;28;20453;-52
2021/11/01 01:37:36;;;;;;;11.38;3.28;;;;;;;11.36;84.94;99726.31;4991922;28;20077;-52
2021/11/01 01:40:08;;;;;;;11.65;3.70;;;;;;;11.28;84.84;99716.09;4992268;28;20125;-52
2021/11/01 01:42:37;;;;;;;7.80;2.83;;;;;;;11.28;85.38;99716.09;4992169;28;20050;-52
2021/11/01 01:45:07;;;;;;;14.10;3.60;;;;;;;11.27;85.49;99714.47;4992375;28;20053;-52
2021/11/01 01:47:35;;;;;;;9.13;3.08;;;;;;;11.24;85.32;99717.81;4991876;28;20038;-52
2021/11/01 01:50:04;;;;;;;13.63;3.20;;;;;;;11.23;85.80;99721.63;4992510;28;20401;-53
2021/11/01 01:52:32;;;;;;;11.27;3.30;;;;;;;11.24;86.27;99720.53;4991660;28;20042;-53
2021/11/01 01:54:59;;;;;;;9.43;3.28;;;;;;;11.25;86.36;99722.16;4992360;28;20039;-52
2021/11/01 01:57:27;;;;;;;8.80;2.78;;;;;;;11.25;85.31;99713.97;4992124;28;20046;-51
2021/11/01 01:59:55;;;;;;;8.88;2.88;;;;;;;11.23;85.62;99713.44;4992057;28;20030;-53
2021/11/01 02:02:24;;;;;;;16.13;3.10;;;;;;;11.21;85.83;99702.88;4992291;28;20050;-51
2021/11/01 02:04:52;;;;;;;7.85;2.53;;;;;;;11.19;86.30;99701.53;4991934;28;20497;-52
2021/11/01 02:07:38;;;;;;;11.55;3.30;;;;;;;11.16;84.99;99702.13;5007093;28;20121;-52
2021/11/01 02:10:07;;;;;;;10.43;2.65;;;;;;;11.08;86.50;99696.25;4991439;28;20036;-52
2021/11/01 02:12:53;;;;;;;7.97;2.60;;;;;;;11.07;86.67;99694.63;4991978;28;20065;-53
2021/11/01 02:15:34;;;;;;;11.32;3.35;;;;;;;11.10;86.83;99687.78;4992171;28;20567;-52
2021/11/01 02:18:03;;;;;;;12.18;2.83;;;;;;;11.05;86.45;99691.41;4994741;28;20030;-51
2021/11/01 02:20:36;;;;;;;10.43;3.05;;;;;;;11.06;87.27;99687.59;4995275;28;20066;-55
2021/11/01 02:23:13;;;;;;;10.88;2.72;;;;;;;11.09;87.63;99684.25;4995581;28;20053;-53
2021/11/01 02:25:50;;;;;;;9.02;2.50;;;;;;;11.09;86.87;99676.06;4995505;28;20484;-52
2021/11/01 02:28:25;;;;;;;9.63;2.90;;;;;;;11.07;86.25;99675.56;4994252;28;20068;-51
2021/11/01 02:30:54;;;;;;;8.80;2.90;;;;;;;11.04;86.94;99672.59;4995724;28;20065;-54
2021/11/01 02:33:23;;;;;;;7.50;2.60;;;;;;;11.02;86.62;99670.19;5009813;28;20050;-52
2021/11/01 02:35:51;;;;;;;11.40;2.88;;;;;;;11.01;87.17;99674.03;4994840;28;20038;-50
2021/11/01 02:38:23;;;;;;;10.30;2.45;;;;;;;11.01;87.26;99671.28;4996045;28;22095;-50
2021/11/01 02:40:52;;;;;;;8.43;2.60;;;;;;;11.01;87.44;99665.84;4994972;28;20034;-51
2021/11/01 02:43:20;;;;;;;9.50;2.47;;;;;;;11.02;87.35;99670.19;4995587;28;20046;-52
2021/11/01 02:45:49;;;;;;;7.90;2.80;;;;;;;11.02;87.72;99664.75;4994825;28;20061;-52
2021/11/01 02:48:18;;;;;;;5.90;2.22;;;;;;;11.03;88.00;99671.00;4995313;28;20066;-53
2021/11/01 02:50:46;;;;;;;9.90;2.65;;;;;;;11.02;87.55;99672.94;4994884;28;20485;-51
2021/11/01 02:53:13;;;;;;;7.32;3.00;;;;;;;11.04;88.58;99678.06;4994985;28;20050;-53
2021/11/01 02:55:41;;;;;;;11.30;3.00;;;;;;;11.03;87.45;99677.25;4994147;28;20485;-52
2021/11/01 02:58:09;;;;;;;7.60;2.30;;;;;;;11.03;87.38;99673.72;4994975;28;20038;-53
2021/11/01 03:00:36;;;;;;;9.45;2.70;;;;;;;11.02;87.93;99675.66;4995311;28;20046;-53
2021/11/01 03:03:05;;;;;;;9.20;2.60;;;;;;;11.05;88.50;99679.69;4995541;28;20429;-48
2021/11/01 03:05:35;;;;;;;10.00;2.42;;;;;;;11.07;89.99;99672.84;4994492;28;20045;-52
2021/11/01 03:08:04;;;;;;;6.45;2.40;;;;;;;11.05;90.16;99664.13;4993553;28;20058;-51
2021/11/01 03:10:32;;;;;;;7.60;2.70;;;;;;;11.08;89.79;99662.72;5009433;28;20097;-50
2021/11/01 03:13:01;;;;;;;7.60;2.85;;;;;;;11.03;89.35;99663.63;4994693;28;20383;-49
2021/11/01 03:15:29;;;;;;;6.30;2.22;;;;;;;11.02;88.79;99659.31;5009102;28;20050;-53
2021/11/01 03:18:03;;;;;;;8.25;2.50;;;;;;;11.08;90.52;99671.72;5008534;28;20046;-53
2021/11/01 03:20:37;;;;;;;6.00;2.33;;;;;;;11.03;89.06;99679.19;5009478;28;20054;-52
2021/11/01 03:23:22;;;;;;;7.43;2.53;;;;;;;11.00;89.00;99677.88;5009030;28;20401;-53
2021/11/01 03:25:55;;;;;;;10.48;2.60;;;;;;;11.02;89.30;99672.94;5008496;28;20398;-52
2021/11/01 03:28:24;;;;;;;9.25;2.42;;;;;;;10.95;88.65;99669.78;4994495;28;20133;-52
2021/11/01 03:30:53;;;;;;;14.20;3.10;;;;;;;11.01;90.39;99670.50;4994362;28;20047;-47
2021/11/01 03:33:22;;;;;;;11.15;2.90;;;;;;;10.93;88.62;99677.44;4993841;28;20092;-51
2021/11/01 03:35:50;;;;;;;14.32;3.50;;;;;;;10.87;88.37;99678.63;5006673;28;20058;-52
2021/11/01 03:38:19;;;;;;;11.20;3.17;;;;;;;10.83;87.96;99685.78;4994319;28;20397;-52
2021/11/01 03:40:47;;;;;;;14.15;3.47;;;;;;;10.82;88.50;99686.88;5008682;28;20046;-53
2021/11/01 03:43:26;;;;;;;9.32;3.00;;;;;;;10.83;88.19;99694.78;5009330;28;20133;-52
2021/11/01 03:45:58;;;;;;;7.07;2.50;;;;;;;10.88;88.73;99694.69;4991684;28;20073;-52
2021/11/01 03:48:28;;;;;;;9.65;3.00;;;;;;;10.92;88.35;99697.63;5008775;28;20520;-52
2021/11/01 03:51:03;;;;;;;10.15;2.65;;;;;;;10.93;89.35;99699.25;4993657;28;20054;-53
2021/11/01 03:53:31;;;;;;;9.48;2.70;;;;;;;10.92;88.28;99703.09;4981892;28;20046;-52
2021/11/01 03:55:58;;;;;;;9.10;2.60;;;;;;;10.91;87.51;99701.44;4993489;28;20052;-52
2021/11/01 03:58:27;;;;;;;5.78;2.10;;;;;;;10.99;90.23;99692.63;5005276;28;20461;-53
2021/11/01 04:00:55;;;;;;;9.65;2.85;;;;;;;11.03;91.78;99699.06;4991275;28;20117;-52
2021/11/01 04:03:24;;;;;;;6.93;2.13;;;;;;;11.18;96.46;99697.19;4993217;28;20077;-52
2021/11/01 04:05:57;;;;;;;10.05;2.63;;;;;;;11.21;95.08;99691.97;4993103;28;20073;-52
2021/11/01 04:08:25;;;;;;;11.93;2.90;;;;;;;11.11;91.32;99688.59;4993739;28;20424;-51
2021/11/01 04:10:53;;;;;;;14.10;2.97;;;;;;;11.08;92.35;99696.25;4993133;28;20120;-52
2021/11/01 04:13:22;;;;;;;6.15;2.08;;;;;;;11.20;97.86;99695.78;4993555;28;20505;-52
2021/11/01 04:16:10;;;;;;;8.02;2.40;;;;;;;11.19;95.08;99698.81;5007685;28;20039;-52
2021/11/01 04:21:26;;;;;;;10.07;2.72;;;;;;;11.04;91.62;99695.25;4993102;28;20047;-53
2021/11/01 04:23:57;;;;;;;9.20;2.50;;;;;;;11.19;96.46;99699.63;4993610;28;20507;-52
2021/11/01 04:26:25;;;;;;;10.57;1.98;;;;;;;11.33;97.48;99691.47;4993095;28;20046;-50
2021/11/01 04:28:53;;;;;;;10.82;2.28;;;;;;;11.32;98.51;99700.75;4993234;28;20398;-52
2021/11/01 04:31:30;;;;;;;7.63;2.55;;;;;;;11.35;97.41;99697.41;4991641;28;20051;-53
2021/11/01 04:34:01;;;;;;;4.40;1.80;;;;;;;11.29;99.71;99695.91;4993428;28;20057;-50
2021/11/01 04:36:30;;;;;;;12.05;3.00;;;;;;;11.13;94.73;99694.56;4993236;28;20493;-53
2021/11/01 04:52:52;;;;;;;11.45;2.83;;;;;;;11.41;99.20;99703.59;4932628;29;20052;-52
2021/11/01 04:55:24;;;;;;;9.32;2.63;;;;;;;11.14;99.07;99690.72;4932230;29;20056;-49
2021/11/01 04:57:53;;;;;;;4.50;1.92;;;;;;;11.13;100.00;99689.09;4932537;29;20050;-50
2021/11/01 05:00:21;;;;;;;12.38;3.03;;;;;;;11.08;92.51;99677.16;4932000;29;20103;-52
2021/11/01 05:02:57;;;;;;;8.48;2.83;;;;;;;11.08;94.70;99681.81;4932400;29;20062;-55
2021/11/01 05:05:25;;;;;;;;;;;;;;;11.12;100.00;99673.88;4933125;29;20052;-53
2021/11/01 05:07:54;;;;;;;6.35;2.20;;;;;;;11.29;100.00;99674.88;4933601;29;19929;-51
2021/11/01 05:10:25;;;;;;;11.98;2.90;;;;;;;11.25;97.38;99671.13;4932044;29;20048;-51
2021/11/01 05:12:53;;;;;;;5.68;2.30;;;;;;;11.22;100.00;99668.22;4932169;29;20048;-53
2021/11/01 05:15:37;;;;;;;6.68;2.38;;;;;;;11.15;99.43;99673.25;4932205;29;20047;-49
2021/11/01 05:20:57;;;;;;;6.50;2.25;;;;;;;11.05;98.30;99664.13;4992045;28;20046;-49
2021/11/01 05:23:35;;;;;;;12.73;3.15;;;;;;;11.05;96.94;99664.13;4992112;28;20073;-52
2021/11/01 05:26:06;;;;;;;9.57;2.55;;;;;;;11.16;100.00;99664.78;4992410;28;20130;-49
2021/11/01 05:28:45;;;;;;;8.65;2.38;;;;;;;11.17;98.86;99654.69;4992341;28;20125;-49
2021/11/01 05:31:24;;;;;;;5.95;2.08;;;;;;;11.22;100.00;99654.59;4992145;28;20038;-49
2021/11/01 05:34:00;;;;;;;11.27;3.47;;;;;;;11.04;98.16;99662.53;4992223;28;20046;-50
2021/11/01 05:36:28;;;;;;;6.45;2.30;;;;;;;11.19;100.00;99652.47;4979229;28;20046;-52
2021/11/01 05:38:56;;;;;;;4.47;1.70;;;;;;;11.36;100.00;99652.69;4992741;28;20440;-52
2021/11/01 05:41:24;;;;;;;7.85;2.28;;;;;;;11.27;100.00;99659.94;4991815;28;20410;-55
2021/11/01 05:43:52;;;;;;;3.30;1.73;;;;;;;11.30;100.00;99668.34;4991980;28;20512;-53
2021/11/01 05:46:20;;;;;;;10.13;2.63;;;;;;;11.34;100.00;99676.72;4991906;28;20082;-53
2021/11/01 05:48:51;;;;;;;5.55;1.70;;;;;;;11.46;100.00;99663.38;4992431;28;20042;-52
2021/11/01 05:51:22;;;;;;;12.77;2.80;;;;;;;11.41;96.49;99670.88;4992867;28;20053;-49
2021/11/01 05:53:53;;;;;;;7.90;2.25;;;;;;;11.22;97.80;99679.13;4996320;28;20118;-51
2021/11/01 05:56:35;;;;;;;10.82;2.95;;;;;;;11.14;98.08;99672.44;4995724;28;20497;-51
2021/11/01 05:59:20;;;;;;;14.93;3.28;;;;;;;11.08;93.39;99687.25;4981901;28;20498;-49
2021/11/01 06:10:16;;;;;;;16.45;4.00;;;;;;;10.48;89.64;99701.56;4995203;28;20424;-52
2021/11/01 06:15:30;;;;;;;9.05;2.50;;;;;;;10.74;93.34;99717.53;4992264;28;20089;-52
2021/11/01 06:17:58;;;;;;;5.55;2.03;;;;;;;10.87;95.75;99717.59;4987870;28;20039;-52
2021/11/01 06:20:26;;;;;;;11.57;2.75;;;;;;;10.82;92.78;99730.47;4995055;28;20096;-50
2021/11/01 06:22:54;;;;;;;8.07;2.47;;;;;;;10.98;98.76;99728.34;4303934;28;10000591;-55
2021/11/01 06:25:21;;;;;;;7.38;2.50;;;;;;;11.22;100.00;99728.19;4993033;28;20062;-53
2021/11/01 06:27:53;;;;;;;6.63;2.20;;;;;;;11.36;100.00;99729.03;4992934;28;20458;-52
2021/11/01 06:30:39;;;;;;;7.07;1.92;;;;;;;11.26;99.53;99721.06;4993040;28;20047;-52
2021/11/01 06:33:18;;;;;;;;;;;;;;;11.28;100.00;99727.81;5006188;28;20153;-52
2021/11/01 06:44:18;;;;;;;10.48;2.97;;;;;;;11.04;97.98;99730.69;4993387;28;20517;-48
2021/11/01 06:49:56;;;;;;;12.60;3.47;;;;;;;10.99;98.78;99744.41;4992894;28;20046;-52
2021/11/01 06:52:50;;;;;;;11.90;3.15;;;;;;;10.79;95.39;99740.06;4992974;28;20453;-49
2021/11/01 08:17:28;;;;;;;18.73;5.57;;;;;;;11.03;99.90;99793.66;4840228;29;20108;-49
2021/11/01 08:28:37;;;;;;;10.63;3.53;;;;;;;10.72;89.13;99828.72;4952536;29;20046;-56
2021/11/01 08:39:36;;;;;;;15.38;4.72;;;;;;;11.29;96.85;99813.16;4989650;28;20139;-52
2021/11/01 09:03:33;;;;;;;14.20;3.55;;;;;;;11.87;94.57;99810.00;4992595;28;20074;-52
2021/11/01 09:19:52;;;;;;;13.98;4.30;;;;;;;11.80;94.17;99798.63;4992747;28;20442;-53
2021/11/01 09:24:52;;;;;;;11.95;3.67;;;;;;;11.76;95.03;99792.16;4992167;28;20045;-49
2021/11/01 09:27:21;;;;;;;9.02;3.22;;;;;;;11.79;95.66;99783.38;4996267;28;20042;-51
2021/11/01 09:43:16;;;;;;;14.18;2.90;;;;;;;11.55;85.60;99799.91;4996575;28;20045;-54
2021/11/01 09:45:45;;;;;;;9.23;3.00;;;;;;;11.42;86.77;99804.19;4996601;28;20141;-53
2021/11/01 09:48:13;;;;;;;11.07;2.65;;;;;;;11.41;88.56;99812.69;4995937;28;20121;-53
2021/11/01 09:50:42;;;;;;;7.63;2.50;;;;;;;11.56;89.78;99808.91;4996187;28;20069;-53
2021/11/01 09:53:18;;;;;;;5.63;2.35;;;;;;;11.49;87.38;99810.06;4996296;28;20512;-50
2021/11/01 09:55:48;;;;;;;10.77;2.70;;;;;;;11.46;89.71;99827.06;4995770;28;20134;-54
2021/11/01 10:01:13;;;;;;;8.15;2.70;;;;;;;11.37;86.65;99826.09;4996093;28;20093;-53
2021/11/01 10:03:46;;;;;;;8.27;2.80;;;;;;;11.33;83.93;99827.00;4995588;28;20421;-53
2021/11/01 10:06:18;;;;;;;9.77;2.60;;;;;;;11.36;85.09;99827.22;4995921;28;20046;-53
2021/11/01 10:09:08;;;;;;;9.30;2.85;;;;;;;11.35;84.88;99825.59;4995595;28;20097;-53
2021/11/01 10:11:39;;;;;;;9.30;2.30;;;;;;;11.37;85.35;99826.09;4996087;28;20042;-55
2021/11/01 10:14:09;;;;;;;10.02;2.80;;;;;;;11.36;83.75;99829.94;4995966;28;20093;-54
2021/11/01 10:19:33;;;;;;;7.78;2.72;;;;;;;11.53;89.36;99826.69;4982049;28;20053;-53
2021/11/01 10:22:04;;;;;;;7.63;2.30;;;;;;;11.52;85.37;99825.88;4996010;28;20053;-54
2021/11/01 10:24:38;;;;;;;9.90;2.78;;;;;;;11.58;86.44;99828.50;4995535;28;20038;-53
2021/11/01 10:27:12;;;;;;;8.93;2.42;;;;;;;11.60;83.83;99829.03;4995204;28;20117;-57
2021/11/01 10:29:55;;;;;;;7.75;2.33;;;;;;;11.59;84.75;99830.13;4987077;28;20129;-54
2021/11/01 10:32:33;;;;;;;8.43;2.88;;;;;;;11.58;82.89;99834.75;4995401;28;20068;-52
2021/11/01 10:35:15;;;;;;;19.85;3.03;;;;;;;11.62;84.38;99818.63;4995401;28;20137;-53
2021/11/01 10:38:11;;;;;;;7.82;2.70;;;;;;;11.81;83.55;99816.63;4987725;28;20118;-53
2021/11/01 10:40:47;;;;;;;10.80;3.07;;;;;;;11.76;82.97;99814.00;4973670;28;20433;-53
2021/11/01 11:14:45;;;;;;;6.25;2.55;;;;;;;12.11;92.92;99831.66;4918230;29;20056;-51
2021/11/01 11:17:22;;;;;;;7.97;2.50;;;;;;;12.21;82.87;99827.09;4909707;29;20068;-54
2021/11/01 11:20:19;;;;;;;7.05;2.47;;;;;;;11.96;79.09;99820.22;4915456;29;20047;-53
2021/11/01 11:28:12;;;;;;;11.40;2.50;;;;;;;11.80;76.84;99819.66;4902442;29;20131;-49
2021/11/01 11:39:20;;;;;;;12.05;2.70;;;;;;;11.74;75.85;99827.13;4906757;29;20122;-53
2021/11/01 11:47:55;;;;;;;7.05;2.50;;;;;;;11.82;75.78;99823.69;4992445;28;20049;-52
2021/11/01 11:50:28;;;;;;;9.18;2.53;;;;;;;11.86;74.50;99813.81;4994123;28;20054;-52
2021/11/01 11:53:06;;;;;;;20.65;9.60;;;;;;;11.84;75.17;99821.47;4991815;28;20101;-52
2021/11/01 11:55:35;;;;;;;62.90;39.38;;;;;;;12.12;88.39;99816.06;4993859;28;20073;-51
2021/11/01 11:58:05;;;;;;;18.65;8.65;;;;;;;12.23;81.75;99811.22;4993211;28;20413;-49
2021/11/01 12:00:38;;;;;;;18.45;9.70;;;;;;;12.14;79.24;99816.56;4645868;28;10000010;-55
2021/11/01 12:03:20;;;;;;;45.67;29.73;;;;;;;12.18;86.50;99814.88;4991851;28;20121;-52
2021/11/01 12:05:51;;;;;;;59.58;40.55;;;;;;;12.31;88.29;99813.25;4991536;28;20043;-55
2021/11/01 12:19:12;;;;;;;38.85;23.58;;;;;;;12.33;87.09;99809.09;4990840;28;20475;-52
2021/11/01 12:21:42;;;;;;;37.53;25.27;;;;;;;12.33;83.22;99795.44;4991100;28;20054;-52
2021/11/01 12:24:11;;;;;;;28.20;18.25;;;;;;;12.57;89.25;99813.53;4990123;28;20453;-52
2021/11/01 12:26:44;;;;;;;31.80;18.95;;;;;;;12.43;85.00;99799.06;4990119;28;20049;-52
2021/11/01 12:29:13;;;;;;;45.08;27.75;;;;;;;12.44;92.22;99801.50;4990493;28;20096;-49
2021/11/01 12:31:43;;;;;;;38.05;24.05;;;;;;;12.57;86.25;99788.94;4990486;28;20050;-51
2021/11/01 12:39:34;;;;;;;51.80;32.00;;;;;;;12.83;93.25;99796.56;4990782;28;20133;-49
2021/11/01 12:58:56;;;;;;;38.22;22.02;;;;;;;12.73;92.54;99790.22;4990011;28;20355;-53
2021/11/01 13:01:25;;;;;;;39.65;23.50;;;;;;;12.80;94.30;99787.06;4989349;28;20065;-51
2021/11/01 13:03:57;;;;;;;36.45;22.40;;;;;;;13.02;90.34;99793.69;4990122;28;20053;-52
2021/11/01 13:06:41;;;;;;;17.08;8.55;;;;;;;12.86;82.14;99779.53;4989944;28;20038;-52
2021/11/01 13:09:14;;;;;;;31.25;17.42;;;;;;;12.92;88.51;99778.31;4991628;28;20088;-51
2021/11/01 13:11:56;;;;;;;21.10;11.70;;;;;;;12.82;82.50;99789.47;5006260;28;20058;-51
2021/11/01 13:19:55;;;;;;;22.30;13.65;;;;;;;12.91;87.59;99777.50;4992252;28;20049;-48
2021/11/01 13:22:29;;;;;;;20.02;11.85;;;;;;;12.79;84.58;99780.78;4991617;28;20058;-49
2021/11/01 13:38:48;;;;;;;27.08;16.67;;;;;;;13.20;95.26;99768.06;4991486;28;20093;-52
2021/11/01 13:41:25;;;;;;;10.15;3.20;;;;;;;13.01;80.82;99776.44;4989386;28;20414;-48
2021/11/01 13:44:09;;;;;;;12.48;4.63;;;;;;;12.65;76.71;99785.50;4992476;28;20047;-49
2021/11/01 13:46:48;;;;;;;11.32;2.95;;;;;;;12.42;72.27;99775.59;4991744;28;20481;-50
2021/11/01 13:49:19;;;;;;;8.77;3.15;;;;;;;12.35;72.61;99779.56;4991828;28;20497;-49
2021/11/01 13:51:50;;;;;;;10.52;5.15;;;;;;;12.37;75.13;99781.97;4983580;28;20478;-52
2021/11/01 13:57:17;;;;;;;9.02;2.63;;;;;;;12.32;71.34;99785.63;4912753;29;20048;-47
2021/11/01 14:29:03;;;;;;;13.02;5.18;;;;;;;12.68;84.15;99793.06;4903287;29;20056;-49
2021/11/01 14:34:40;;;;;;;14.40;5.55;;;;;;;12.73;81.46;99792.16;4964815;28;20061;-50
2021/11/01 15:12:57;;;;;;;11.68;4.40;;;;;;;12.70;88.00;99777.16;4994397;28;20054;-48
2021/11/01 15:38:52;;;;;;;10.38;3.17;;;;;;;12.29;81.33;99777.22;4989558;28;20101;-48
2021/11/01 16:20:11;;;;;;;10.52;2.95;;;;;;;12.13;77.62;99774.00;4990993;28;20050;-50
2021/11/01 16:22:40;;;;;;;8.77;3.50;;;;;;;12.12;77.60;99766.91;4990757;28;20531;-49
2021/11/01 16:25:08;;;;;;;8.57;2.80;;;;;;;12.09;75.94;99770.25;4990454;28;20093;-50
2021/11/01 16:27:44;;;;;;;7.70;2.45;;;;;;;12.06;76.67;99773.63;4990799;28;20073;-49
2021/11/01 16:30:21;;;;;;;7.40;2.80;;;;;;;12.07;76.67;99769.75;4990830;28;20382;-49
2021/11/01 16:32:54;;;;;;;8.40;3.05;;;;;;;12.08;77.18;99793.22;4991177;28;20049;-48
2021/11/01 16:35:25;;;;;;;10.13;3.75;;;;;;;12.12;78.86;99821.53;5003829;28;20049;-45
2021/11/01 16:38:08;;;;;;;6.95;2.80;;;;;;;12.13;78.23;99845.00;4988819;28;20042;-51
2021/11/01 16:40:35;;;;;;;6.75;1.90;;;;;;;11.92;77.35;99845.38;4991134;28;20048;-50
2021/11/01 16:43:10;;;;;;;3.92;1.67;;;;;;;11.74;77.32;99838.06;4990693;28;20117;-51
2021/11/01 16:45:38;;;;;;;4.90;2.03;;;;;;;11.65;78.98;99845.31;4988852;28;20046;-51
2021/11/01 16:48:08;;;;;;;4.95;1.83;;;;;;;11.60;79.51;99843.47;4990177;28;20034;-52
2021/11/01 16:50:37;;;;;;;2.88;1.60;;;;;;;11.59;79.80;99835.56;4989822;28;20509;-49
2021/11/01 16:53:05;;;;;;;6.50;2.10;;;;;;;11.57;81.38;99843.25;4990924;28;20449;-50
2021/11/01 16:55:37;;;;;;;3.42;1.50;;;;;;;11.50;81.33;99844.44;4990543;28;20050;-50
2021/11/01 16:58:24;;;;;;;4.57;2.00;;;;;;;11.51;82.75;99846.06;4990688;28;20046;-51
2021/11/01 17:01:09;;;;;;;3.88;1.70;;;;;;;11.52;82.66;99842.25;4990178;28;20413;-48
2021/11/01 17:06:22;;;;;;;3.42;1.52;;;;;;;11.49;83.04;99823.72;5004990;28;20034;-49
2021/11/01 18:23:51;;;;;;;5.57;2.22;;;;;;;11.41;84.92;99846.22;4896529;29;20056;-52
2021/11/01 18:41:12;;;;;;;3.15;1.90;;;;;;;11.08;86.22;99881.63;4991386;28;20050;-49
2021/11/01 18:51:53;;;;;;;4.78;2.10;;;;;;;11.05;86.53;99881.41;4992029;28;20485;-51
2021/11/01 18:54:24;;;;;;;3.42;2.30;;;;;;;11.02;86.56;99880.09;4991739;28;20476;-52
2021/11/01 18:56:56;;;;;;;6.75;3.22;;;;;;;11.01;86.61;99883.91;4992371;28;20038;-53
2021/11/01 18:59:26;;;;;;;6.65;3.03;;;;;;;11.00;86.66;99887.75;4991547;28;20046;-54
2021/11/01 19:02:16;;;;;;;7.40;3.15;;;;;;;10.98;86.18;99887.22;4990245;28;20112;-51
2021/11/01 19:05:11;;;;;;;7.13;3.17;;;;;;;10.94;86.15;99890.81;4992396;28;20489;-50
2021/11/01 19:13:51;;;;;;;8.13;3.50;;;;;;;10.85;86.36;99894.22;4912448;29;20091;-51
2021/11/01 20:04:20;;;;;;;4.53;2.40;;;;;;;10.80;86.14;99883.38;4978320;28;20060;-53
2021/11/01 20:13:16;;;;;;;6.32;2.75;;;;;;;10.84;86.15;99887.13;4991004;28;20630;-52
2021/11/01 21:26:22;;;;;;;13.70;7.50;;;;;;;10.28;87.85;99889.69;4992261;28;20568;-50
2021/11/01 21:28:52;;;;;;;9.95;3.70;;;;;;;10.31;88.10;99889.16;4989063;28;20122;-49
2021/11/01 21:31:21;;;;;;;7.13;3.22;;;;;;;10.35;87.74;99884.75;4992037;28;20038;-53
2021/11/01 21:33:52;;;;;;;5.60;2.70;;;;;;;10.36;87.89;99881.72;4992529;28;20076;-51
2021/11/01 21:36:24;;;;;;;6.75;2.85;;;;;;;10.38;87.62;99889.59;4992192;28;20046;-50
2021/11/01 21:38:53;;;;;;;7.15;3.35;;;;;;;10.38;87.63;99884.97;4992604;28;20121;-52
2021/11/01 21:41:22;;;;;;;8.32;3.42;;;;;;;10.38;86.95;99887.69;4991875;28;20113;-55
2021/11/01 21:43:50;;;;;;;6.80;3.20;;;;;;;10.37;86.80;99883.34;4992307;28;20042;-52
2021/11/01 21:46:18;;;;;;;9.13;3.15;;;;;;;10.36;86.95;99875.47;4991778;28;20138;-46
2021/11/01 21:48:46;;;;;;;8.00;3.25;;;;;;;10.36;86.78;99886.34;4992408;28;20104;-47
2021/11/01 21:51:14;;;;;;;9.00;3.20;;;;;;;10.34;86.32;99878.50;4992274;28;20043;-52
2021/11/01 21:53:48;;;;;;;7.65;3.08;;;;;;;10.34;87.02;99874.94;4992404;28;20057;-50
2021/11/01 21:56:16;;;;;;;7.38;2.85;;;;;;;10.32;86.32;99874.41;4992241;28;20054;-49
2021/11/01 22:17:40;;;;;;;;;;;;;;;10.27;86.36;99866.28;4992498;28;20113;-52
2021/11/01 22:20:15;;;;;;;9.00;4.35;;;;;;;10.29;86.40;99864.91;4984268;28;19926;-51
2021/11/01 22:39:18;;;;;;;6.28;3.22;;;;;;;10.16;85.00;99858.22;4916516;29;20045;-51
2021/11/01 22:42:02;;;;;;;5.30;3.00;;;;;;;10.14;84.75;99854.19;4915836;29;20051;-53
2021/11/01 22:58:20;;;;;;;7.43;3.00;;;;;;;10.09;84.11;99855.03;4859889;29;19931;-53
2021/11/01 23:00:54;;;;;;;7.13;3.22;;;;;;;10.08;84.01;99841.72;4859385;29;20054;-53
2021/11/01 23:33:43;;;;;;;7.47;3.22;;;;;;;9.92;83.23;99862.84;4985988;28;20045;-52
2021/11/01 23:36:11;;;;;;;7.80;3.20;;;;;;;9.91;83.37;99863.94;4994288;28;20038;-55
2021/11/01 23:38:39;;;;;;;6.80;3.03;;;;;;;9.92;83.42;99862.84;4994539;28;20096;-52
2021/11/01 23:41:07;;;;;;;7.85;3.25;;;;;;;9.89;82.82;99855.25;4993656;28;20565;-52
2021/11/01 23:43:34;;;;;;;7.47;3.58;;;;;;;9.86;83.17;99858.53;4993348;28;20413;-52
2021/11/01 23:46:02;;;;;;;5.93;3.10;;;;;;;9.85;82.69;99865.09;4994053;28;20054;-48
2021/11/01 23:48:31;;;;;;;8.15;3.53;;;;;;;9.84;82.71;99863.44;4993881;28;20468;-53
2021/11/01 23:50:59;;;;;;;7.65;3.30;;;;;;;9.81;82.68;99860.22;4993858;28;20041;-54
2021/11/01 23:54:01;;;;;;;7.25;3.35;;;;;;;9.81;82.85;99846.63;4994360;28;20042;-52
2021/11/01 23:56:29;;;;;;;7.10;3.40;;;;;;;9.81;82.93;99843.91;4993975;28;20417;-52
2021/11/01 23:58:57;;;;;;;8.77;3.47;;;;;;;9.81;82.47;99848.50;4994105;28;20050;-51
